createdAt,value
2022-11-03T00:01:50.149Z,100813.50
2022-11-03T00:06:54.689Z,100816.34
2022-11-03T00:11:57.643Z,100814.03
2022-11-03T00:17:00.406Z,100814.78
2022-11-03T00:22:03.768Z,100816.66
2022-11-03T00:27:06.510Z,100816.34
2022-11-03T00:32:09.292Z,100816.06
2022-11-03T00:37:12.078Z,100812.13
2022-11-03T00:42:15.186Z,100811.59
2022-11-03T00:47:21.606Z,100797.63
2022-11-03T00:52:26.845Z,100808.84
2022-11-03T00:57:29.823Z,100809.56
2022-11-03T01:02:32.751Z,100795.28
2022-11-03T01:07:35.539Z,100801.50
2022-11-03T01:12:38.347Z,100798.03
2022-11-03T01:17:41.566Z,100808.69
2022-11-03T01:22:44.361Z,100810.16
2022-11-03T01:27:47.325Z,100800.50
2022-11-03T01:32:49.937Z,100809.41
2022-11-03T01:37:53.973Z,100811.53
2022-11-03T01:43:23.778Z,100808.25
2022-11-03T01:48:27.189Z,100802.41
2022-11-03T01:53:30.587Z,100805.97
2022-11-03T01:58:36.166Z,100808.56
2022-11-03T02:03:44.396Z,100811.97
2022-11-03T02:09:09.023Z,100805.00
2022-11-03T02:14:15.338Z,100798.41
2022-11-03T02:19:44.465Z,100794.84
2022-11-03T02:25:04.757Z,100779.97
2022-11-03T02:30:08.160Z,100783.09
2022-11-03T02:35:19.683Z,100797.19
2022-11-03T02:40:32.219Z,100797.06
2022-11-03T02:45:35.265Z,100782.41
2022-11-03T02:50:38.087Z,100793.41
2022-11-03T02:55:51.252Z,100797.44
2022-11-03T03:01:03.014Z,100791.44
2022-11-03T03:06:09.887Z,100785.13
2022-11-03T03:11:13.634Z,100800.84
2022-11-03T03:16:32.083Z,100807.91
2022-11-03T03:21:39.543Z,100799.38
2022-11-03T03:26:46.537Z,100801.44
2022-11-03T03:31:55.895Z,100808.09
2022-11-03T03:37:00.036Z,100796.25
2022-11-03T03:42:03.581Z,100806.28
2022-11-03T03:47:21.970Z,100792.16
2022-11-03T03:52:25.569Z,100807.72
2022-11-03T03:57:30.497Z,100801.00
2022-11-03T04:02:33.385Z,100800.44
2022-11-03T04:07:48.281Z,100799.03
2022-11-03T04:13:09.980Z,100811.53
2022-11-03T04:18:31.420Z,100787.53
2022-11-03T04:23:34.344Z,100799.69
2022-11-03T04:28:37.824Z,100806.78
2022-11-03T04:33:41.780Z,100790.31
2022-11-03T04:38:45.193Z,100807.53
2022-11-03T04:43:48.388Z,100802.06
2022-11-03T04:48:53.112Z,100798.59
2022-11-03T04:54:02.760Z,100798.06
2022-11-03T04:59:10.963Z,100803.16
2022-11-03T05:04:18.496Z,100804.03
2022-11-03T05:09:27.098Z,100796.75
2022-11-03T05:14:31.623Z,100804.91
2022-11-03T05:19:37.739Z,100805.66
2022-11-03T05:24:40.481Z,100803.06
2022-11-03T05:29:43.336Z,100806.19
2022-11-03T05:34:48.291Z,100817.38
2022-11-03T05:39:52.261Z,100828.75
2022-11-03T05:44:55.338Z,100827.47
2022-11-03T05:50:06.360Z,100838.25
2022-11-03T05:55:21.075Z,100850.69
2022-11-03T06:00:41.889Z,100861.00
2022-11-03T06:05:47.170Z,100876.47
2022-11-03T06:10:53.224Z,100878.53
2022-11-03T06:16:05.711Z,100873.47
2022-11-03T06:21:19.703Z,100885.41
2022-11-03T06:26:24.983Z,100886.44
2022-11-03T06:31:29.415Z,100882.75
2022-11-03T06:36:36.194Z,100893.91
2022-11-03T06:41:39.130Z,100888.75
2022-11-03T06:46:42.044Z,100892.78
2022-11-03T06:51:44.819Z,100893.19
2022-11-03T06:56:47.603Z,100886.19
2022-11-03T07:01:54.800Z,100871.53
2022-11-03T07:07:00.914Z,100880.31
2022-11-03T07:12:13.116Z,100883.66
2022-11-03T07:17:21.853Z,100884.25
2022-11-03T07:22:26.191Z,100878.69
2022-11-03T07:27:36.371Z,100881.00
2022-11-03T07:32:39.563Z,100884.25
2022-11-03T07:37:42.535Z,100886.25
2022-11-03T07:42:45.349Z,100887.88
2022-11-03T07:47:48.428Z,100890.47
2022-11-03T07:52:51.218Z,100881.81
2022-11-03T07:57:54.003Z,100881.81
2022-11-03T08:03:00.010Z,100894.75
2022-11-03T08:08:02.844Z,100889.88
2022-11-03T08:13:06.025Z,100894.91
2022-11-03T08:18:08.961Z,100890.16
2022-11-03T08:23:25.368Z,100888.09
2022-11-03T08:28:29.141Z,100866.78
2022-11-03T08:33:33.271Z,100877.91
2022-11-03T08:38:36.444Z,100871.47
2022-11-03T08:43:39.327Z,100874.13
2022-11-03T08:48:42.233Z,100864.72
2022-11-03T08:53:45.281Z,100877.44
2022-11-03T08:58:48.307Z,100860.38
2022-11-03T09:03:51.236Z,100860.59
2022-11-03T09:14:17.407Z,100859.50
2022-11-03T09:19:20.334Z,100847.47
2022-11-03T09:24:23.080Z,100853.41
2022-11-03T09:29:25.881Z,100850.41
2022-11-03T09:34:30.088Z,100845.28
2022-11-03T09:39:33.574Z,100840.78
2022-11-03T09:44:36.629Z,100832.34
2022-11-03T09:49:39.409Z,100832.53
2022-11-03T09:54:42.188Z,100822.25
2022-11-03T09:59:47.740Z,100813.28
2022-11-03T10:04:52.513Z,100804.63
2022-11-03T10:09:56.652Z,100807.59
2022-11-03T10:14:59.538Z,100808.66
2022-11-03T10:20:02.561Z,100789.47
2022-11-03T10:25:27.327Z,100786.16
2022-11-03T10:30:36.309Z,100783.97
2022-11-03T10:35:48.865Z,100769.31
2022-11-03T10:40:51.594Z,100762.31
2022-11-03T10:46:49.125Z,100745.69
2022-11-03T10:51:52.439Z,100743.34
2022-11-03T10:56:55.467Z,100723.22
2022-11-03T11:01:59.247Z,100724.84
2022-11-03T11:07:02.329Z,100706.22
2022-11-03T11:12:14.545Z,100701.03
2022-11-03T11:17:42.296Z,100685.59
2022-11-03T11:22:46.177Z,100686.25
2022-11-03T11:27:54.191Z,100673.47
2022-11-03T11:33:12.679Z,100668.81
2022-11-03T11:38:49.596Z,100674.00
2022-11-03T11:43:52.414Z,100654.38
2022-11-03T11:49:04.373Z,100647.56
2022-11-03T11:54:22.553Z,100643.91
2022-11-03T11:59:26.295Z,100626.44
2022-11-03T12:04:31.632Z,100624.09
2022-11-03T12:09:35.123Z,100618.78
2022-11-03T12:14:38.949Z,100609.97
2022-11-03T12:19:50.429Z,100608.31
2022-11-03T12:24:53.639Z,100604.47
2022-11-03T12:29:58.227Z,100593.81
2022-11-03T12:35:01.733Z,100588.00
2022-11-03T12:40:06.243Z,100583.34
2022-11-03T12:45:09.547Z,100572.69
2022-11-03T12:50:12.423Z,100561.91
2022-11-03T12:55:17.322Z,100568.06
2022-11-03T13:00:20.287Z,100564.88
2022-11-03T13:05:23.203Z,100555.75
2022-11-03T13:10:26.001Z,100550.44
2022-11-03T13:15:28.920Z,100557.91
2022-11-03T13:20:34.165Z,100546.44
2022-11-03T13:25:37.064Z,100546.75
2022-11-03T13:30:41.518Z,100543.25
2022-11-03T13:35:44.342Z,100535.28
2022-11-03T13:40:57.749Z,100531.75
2022-11-03T13:46:02.728Z,100535.72
2022-11-03T13:51:05.706Z,100532.59
2022-11-03T13:56:11.483Z,100531.91
2022-11-03T14:01:18.012Z,100536.06
2022-11-03T14:06:20.810Z,100533.72
2022-11-03T14:11:42.037Z,100531.56
2022-11-03T14:16:44.981Z,100521.91
2022-11-03T14:21:47.726Z,100518.72
2022-11-03T14:26:50.512Z,100507.44
2022-11-03T14:31:53.281Z,100510.91
2022-11-03T14:36:57.077Z,100508.25
2022-11-03T14:42:06.660Z,100498.63
2022-11-03T14:47:11.670Z,100499.09
2022-11-03T14:52:15.775Z,100490.97
2022-11-03T14:57:18.570Z,100489.13
2022-11-03T15:02:21.534Z,100481.00
2022-11-03T15:07:24.703Z,100478.50
2022-11-03T15:12:27.501Z,100469.50
2022-11-03T15:17:30.355Z,100473.34
2022-11-03T15:27:56.045Z,100460.53
2022-11-03T15:32:58.839Z,100467.63
2022-11-03T15:38:01.909Z,100460.09
2022-11-03T15:43:06.131Z,100456.91
2022-11-03T15:48:09.707Z,100465.50
2022-11-03T15:53:12.759Z,100464.31
2022-11-03T15:58:15.556Z,100455.59
2022-11-03T16:03:18.462Z,100457.41
2022-11-03T16:08:21.325Z,100448.56
2022-11-03T16:13:24.794Z,100447.50
2022-11-03T16:18:27.924Z,100440.34
2022-11-03T16:23:30.739Z,100440.31
2022-11-03T16:28:33.459Z,100438.41
2022-11-03T16:33:36.281Z,100442.69
2022-11-03T16:38:39.004Z,100440.47
2022-11-03T16:43:42.504Z,100441.28
2022-11-03T16:48:45.627Z,100437.28
2022-11-03T16:53:48.430Z,100431.28
2022-11-03T16:58:51.184Z,100452.50
2022-11-03T17:03:54.091Z,100443.53
2022-11-03T17:08:56.919Z,100442.88
2022-11-03T17:19:03.286Z,100425.91
2022-11-03T17:24:06.823Z,100435.53
2022-11-03T17:29:14.885Z,100428.78
2022-11-03T17:34:21.573Z,100418.72
2022-11-03T17:39:30.462Z,100410.13
2022-11-03T17:44:33.306Z,100399.84
2022-11-03T17:49:36.227Z,100391.44
2022-11-03T17:54:39.020Z,100375.06
2022-11-03T17:59:42.557Z,100370.13
2022-11-03T18:04:45.435Z,100355.69
2022-11-03T18:09:48.285Z,100356.38
2022-11-03T18:14:51.055Z,100351.91
2022-11-03T18:19:53.713Z,100340.13
2022-11-03T18:24:56.539Z,100329.69
2022-11-03T18:29:59.347Z,100318.91
2022-11-03T18:35:02.769Z,100319.22
2022-11-03T18:40:06.079Z,100310.75
2022-11-03T18:45:14.958Z,100292.88
2022-11-03T18:50:18.483Z,100290.88
2022-11-03T18:55:21.309Z,100291.56
2022-11-03T19:00:24.323Z,100286.59
2022-11-03T19:05:27.094Z,100276.50
2022-11-03T19:10:30.616Z,100275.31
2022-11-03T19:15:33.452Z,100259.41
2022-11-03T19:20:36.322Z,100251.28
2022-11-03T19:25:43.135Z,100249.97
2022-11-03T19:30:45.807Z,100233.72
2022-11-03T19:35:49.277Z,100227.41
2022-11-03T19:41:10.837Z,100238.84
2022-11-03T19:46:19.388Z,100223.41
2022-11-03T19:51:22.619Z,100213.31
2022-11-03T19:56:25.503Z,100208.00
2022-11-03T20:01:28.468Z,100206.00
2022-11-03T20:06:34.086Z,100195.38
2022-11-03T20:11:36.999Z,100190.56
2022-11-03T20:16:39.739Z,100176.13
2022-11-03T20:21:42.750Z,100172.31
2022-11-03T20:26:45.753Z,100179.16
2022-11-03T20:31:48.481Z,100162.53
2022-11-03T20:36:51.792Z,100154.56
2022-11-03T20:41:57.513Z,100155.25
2022-11-03T20:47:00.798Z,100142.66
2022-11-03T20:52:04.151Z,100140.97
2022-11-03T20:57:06.951Z,100132.03
2022-11-03T21:02:13.574Z,100132.84
2022-11-03T21:07:16.674Z,100121.06
2022-11-03T21:12:19.546Z,100116.56
2022-11-03T21:17:41.014Z,100130.69
2022-11-03T21:22:52.983Z,100127.19
2022-11-03T21:27:56.766Z,100124.72
2022-11-03T21:32:59.752Z,100122.72
2022-11-03T21:38:02.529Z,100101.97
2022-11-03T21:43:23.841Z,100098.31
2022-11-03T21:48:45.077Z,100108.59
2022-11-03T21:53:48.079Z,100099.78
2022-11-03T21:58:51.100Z,100086.19
2022-11-03T22:03:55.548Z,100071.25
2022-11-03T22:08:58.258Z,100054.63
2022-11-03T22:14:02.275Z,100054.16
2022-11-03T22:19:43.966Z,100031.06
2022-11-03T22:25:05.348Z,100025.13
2022-11-03T22:30:27.266Z,100025.44
2022-11-03T22:35:48.764Z,100010.84
2022-11-03T22:41:09.932Z,100008.50
2022-11-03T22:46:14.068Z,100010.50
2022-11-03T22:51:18.042Z,100010.50
2022-11-03T22:56:21.949Z,99980.63
2022-11-03T23:01:29.201Z,99992.06
2022-11-03T23:06:35.300Z,100005.34
2022-11-03T23:11:38.909Z,99992.44
2022-11-03T23:16:43.518Z,99989.78
2022-11-03T23:21:48.157Z,99975.66
2022-11-03T23:26:50.989Z,99975.66
2022-11-03T23:31:54.106Z,99966.06
2022-11-03T23:36:58.383Z,99967.72
2022-11-03T23:42:01.154Z,99957.91
2022-11-03T23:47:22.433Z,99960.38
2022-11-03T23:52:25.270Z,99935.16
2022-11-03T23:57:46.615Z,99927.38
